Portada
METAR-TAF:

METAR-TAF

Aeroports :

Pyongyang, Corea del Nord

latitud: 39-02N, longitud: 125-47E, altitud: 36 m

METAR: manca

Hora: 20:06 (11:06 UTC)

Pronòstic

L'informe es va fer fa 7 hores i 36 minuts, a les 03:30 UTC
Pronòstic vàlid del 15 a les 06 UTC al 16 a les 06 UTC
Vent 4 kt amb direcció variable
Visibilitat: 6000 m

TAF: ZKPY 150330Z 1506/1606 VRB02MPS 6000 NSC TX05/1507Z TNM05/1518Z

Observacions i pronòstics meteorològics de més de 4000 aeroports (METAR i TAF).

Les estacions disponibles són els punts grocs i vermells al mapa.

Posi el ratolí al punt desitjat per veure el nom de l'estació.

Feu clic per veure les observacions i els pronòstics meteorològics.

Per canviar el mapa: feu clic els botons verds amb una creu de color negre per apropar; al botó verd amb un guió per allunyar la imatge; o en les fletxes verdes per a mapes adjacents.


METAR-TAF: